sensor_id;sensor_type;location;lat;lon;timestamp;temperature;humidity
54431;DHT22;40342;52.998;5.862;2023-07-30T00:01:54;16.80;99.90
54431;DHT22;40342;52.998;5.862;2023-07-30T00:04:20;16.80;99.90
54431;DHT22;40342;52.998;5.862;2023-07-30T00:06:46;16.80;99.90
54431;DHT22;40342;52.998;5.862;2023-07-30T00:09:12;16.80;99.90
54431;DHT22;40342;52.998;5.862;2023-07-30T00:11:37;16.90;99.90
54431;DHT22;40342;52.998;5.862;2023-07-30T00:14:03;16.90;99.90
54431;DHT22;40342;52.998;5.862;2023-07-30T00:16:29;16.90;99.90
54431;DHT22;40342;52.998;5.862;2023-07-30T00:18:54;16.90;99.90
54431;DHT22;40342;52.998;5.862;2023-07-30T00:21:20;16.90;99.90
54431;DHT22;40342;52.998;5.862;2023-07-30T00:23:45;16.90;99.90
54431;DHT22;40342;52.998;5.862;2023-07-30T00:26:11;16.90;99.90
54431;DHT22;40342;52.998;5.862;2023-07-30T00:28:37;16.90;99.90
54431;DHT22;40342;52.998;5.862;2023-07-30T00:31:02;16.90;99.90
54431;DHT22;40342;52.998;5.862;2023-07-30T00:33:28;16.90;99.90
54431;DHT22;40342;52.998;5.862;2023-07-30T00:35:53;16.90;99.90
54431;DHT22;40342;52.998;5.862;2023-07-30T00:38:19;16.90;99.90
54431;DHT22;40342;52.998;5.862;2023-07-30T00:40:45;16.90;99.90
54431;DHT22;40342;52.998;5.862;2023-07-30T00:43:10;16.90;99.90
54431;DHT22;40342;52.998;5.862;2023-07-30T00:45:36;16.90;99.90
54431;DHT22;40342;52.998;5.862;2023-07-30T00:48:04;16.90;99.90
54431;DHT22;40342;52.998;5.862;2023-07-30T00:50:30;16.90;99.90
54431;DHT22;40342;52.998;5.862;2023-07-30T00:52:56;16.90;99.90
54431;DHT22;40342;52.998;5.862;2023-07-30T00:55:21;16.90;99.90
54431;DHT22;40342;52.998;5.862;2023-07-30T00:57:48;17.00;99.90
54431;DHT22;40342;52.998;5.862;2023-07-30T01:00:14;16.90;99.90
54431;DHT22;40342;52.998;5.862;2023-07-30T01:02:39;17.00;99.90
54431;DHT22;40342;52.998;5.862;2023-07-30T01:05:05;17.00;99.90
54431;DHT22;40342;52.998;5.862;2023-07-30T01:07:31;17.00;99.90
54431;DHT22;40342;52.998;5.862;2023-07-30T01:09:57;17.00;99.90
54431;DHT22;40342;52.998;5.862;2023-07-30T01:12:24;17.00;99.90
54431;DHT22;40342;52.998;5.862;2023-07-30T01:14:50;17.00;99.90
54431;DHT22;40342;52.998;5.862;2023-07-30T01:17:16;17.00;99.90
54431;DHT22;40342;52.998;5.862;2023-07-30T01:19:42;17.00;99.90
54431;DHT22;40342;52.998;5.862;2023-07-30T01:22:08;17.00;99.90
54431;DHT22;40342;52.998;5.862;2023-07-30T01:24:33;17.00;99.90
54431;DHT22;40342;52.998;5.862;2023-07-30T01:27:02;17.00;99.90
54431;DHT22;40342;52.998;5.862;2023-07-30T01:29:38;17.00;99.90
54431;DHT22;40342;52.998;5.862;2023-07-30T01:32:08;17.00;99.90
54431;DHT22;40342;52.998;5.862;2023-07-30T01:34:36;16.90;99.90
54431;DHT22;40342;52.998;5.862;2023-07-30T01:37:04;16.90;99.90
54431;DHT22;40342;52.998;5.862;2023-07-30T01:39:32;16.90;99.90
54431;DHT22;40342;52.998;5.862;2023-07-30T01:41:58;16.90;99.90
54431;DHT22;40342;52.998;5.862;2023-07-30T01:44:24;16.90;99.90
54431;DHT22;40342;52.998;5.862;2023-07-30T01:46:49;16.90;99.90
54431;DHT22;40342;52.998;5.862;2023-07-30T01:49:15;16.90;99.90
54431;DHT22;40342;52.998;5.862;2023-07-30T01:51:40;16.90;99.90
54431;DHT22;40342;52.998;5.862;2023-07-30T01:54:06;16.90;99.90
54431;DHT22;40342;52.998;5.862;2023-07-30T01:56:31;17.00;99.90
54431;DHT22;40342;52.998;5.862;2023-07-30T01:58:57;17.00;99.90
54431;DHT22;40342;52.998;5.862;2023-07-30T02:01:23;17.00;99.90
54431;DHT22;40342;52.998;5.862;2023-07-30T02:03:48;17.10;99.90
54431;DHT22;40342;52.998;5.862;2023-07-30T02:06:14;17.10;99.90
54431;DHT22;40342;52.998;5.862;2023-07-30T02:08:40;17.10;99.90
54431;DHT22;40342;52.998;5.862;2023-07-30T02:11:05;17.10;99.90
54431;DHT22;40342;52.998;5.862;2023-07-30T02:13:31;17.10;99.90
54431;DHT22;40342;52.998;5.862;2023-07-30T02:15:56;17.10;99.90
54431;DHT22;40342;52.998;5.862;2023-07-30T02:18:22;17.00;99.90
54431;DHT22;40342;52.998;5.862;2023-07-30T02:20:47;17.00;99.90
54431;DHT22;40342;52.998;5.862;2023-07-30T02:23:14;17.10;99.90
54431;DHT22;40342;52.998;5.862;2023-07-30T02:25:41;17.00;99.90
54431;DHT22;40342;52.998;5.862;2023-07-30T02:28:07;17.00;99.90
54431;DHT22;40342;52.998;5.862;2023-07-30T02:30:33;17.00;99.90
54431;DHT22;40342;52.998;5.862;2023-07-30T02:32:59;17.00;99.90
54431;DHT22;40342;52.998;5.862;2023-07-30T02:35:25;17.00;99.90
54431;DHT22;40342;52.998;5.862;2023-07-30T02:37:50;17.00;99.90
54431;DHT22;40342;52.998;5.862;2023-07-30T02:40:16;16.90;99.90
54431;DHT22;40342;52.998;5.862;2023-07-30T02:42:41;16.90;99.90
54431;DHT22;40342;52.998;5.862;2023-07-30T02:45:07;16.90;99.90
54431;DHT22;40342;52.998;5.862;2023-07-30T02:47:33;16.90;99.90
54431;DHT22;40342;52.998;5.862;2023-07-30T02:49:58;16.90;99.90
54431;DHT22;40342;52.998;5.862;2023-07-30T02:52:24;16.90;99.90
54431;DHT22;40342;52.998;5.862;2023-07-30T02:54:49;16.80;99.90
54431;DHT22;40342;52.998;5.862;2023-07-30T02:57:15;16.80;99.90
54431;DHT22;40342;52.998;5.862;2023-07-30T02:59:40;16.80;99.90
54431;DHT22;40342;52.998;5.862;2023-07-30T03:02:06;16.80;99.90
54431;DHT22;40342;52.998;5.862;2023-07-30T03:04:32;16.70;99.90
54431;DHT22;40342;52.998;5.862;2023-07-30T03:06:58;16.70;99.90
54431;DHT22;40342;52.998;5.862;2023-07-30T03:09:23;16.70;99.90
54431;DHT22;40342;52.998;5.862;2023-07-30T03:11:49;16.70;99.90
54431;DHT22;40342;52.998;5.862;2023-07-30T03:14:15;16.70;99.90
54431;DHT22;40342;52.998;5.862;2023-07-30T03:16:41;16.70;99.90
54431;DHT22;40342;52.998;5.862;2023-07-30T03:19:06;16.60;99.90
54431;DHT22;40342;52.998;5.862;2023-07-30T03:21:32;16.60;99.90
54431;DHT22;40342;52.998;5.862;2023-07-30T03:23:57;16.60;99.90
54431;DHT22;40342;52.998;5.862;2023-07-30T03:26:23;16.60;99.90
54431;DHT22;40342;52.998;5.862;2023-07-30T03:28:48;16.60;99.90
54431;DHT22;40342;52.998;5.862;2023-07-30T03:31:14;16.50;99.90
54431;DHT22;40342;52.998;5.862;2023-07-30T03:33:40;16.60;99.90
54431;DHT22;40342;52.998;5.862;2023-07-30T03:36:10;16.50;99.90
54431;DHT22;40342;52.998;5.862;2023-07-30T03:38:35;16.50;99.90
54431;DHT22;40342;52.998;5.862;2023-07-30T03:41:01;16.50;99.90
54431;DHT22;40342;52.998;5.862;2023-07-30T03:43:26;16.40;99.90
54431;DHT22;40342;52.998;5.862;2023-07-30T03:45:52;16.40;99.90
54431;DHT22;40342;52.998;5.862;2023-07-30T03:48:17;16.40;99.90
54431;DHT22;40342;52.998;5.862;2023-07-30T03:50:43;16.30;99.90
54431;DHT22;40342;52.998;5.862;2023-07-30T03:53:09;16.30;99.90
54431;DHT22;40342;52.998;5.862;2023-07-30T03:55:34;16.20;99.90
54431;DHT22;40342;52.998;5.862;2023-07-30T03:58:00;16.20;99.90
54431;DHT22;40342;52.998;5.862;2023-07-30T04:00:25;16.20;99.90
54431;DHT22;40342;52.998;5.862;2023-07-30T04:02:51;16.20;99.90
54431;DHT22;40342;52.998;5.862;2023-07-30T04:05:16;16.20;99.90
54431;DHT22;40342;52.998;5.862;2023-07-30T04:07:42;16.10;99.90
54431;DHT22;40342;52.998;5.862;2023-07-30T04:10:08;16.10;99.90
54431;DHT22;40342;52.998;5.862;2023-07-30T04:12:33;16.00;99.90
54431;DHT22;40342;52.998;5.862;2023-07-30T04:14:59;16.00;99.90
54431;DHT22;40342;52.998;5.862;2023-07-30T04:17:24;16.00;99.90
54431;DHT22;40342;52.998;5.862;2023-07-30T04:19:50;16.00;99.90
54431;DHT22;40342;52.998;5.862;2023-07-30T04:22:15;15.90;99.90
54431;DHT22;40342;52.998;5.862;2023-07-30T04:24:41;15.90;99.90
54431;DHT22;40342;52.998;5.862;2023-07-30T04:27:07;15.90;99.90
54431;DHT22;40342;52.998;5.862;2023-07-30T04:29:32;15.90;99.90
54431;DHT22;40342;52.998;5.862;2023-07-30T04:31:58;15.80;99.90
54431;DHT22;40342;52.998;5.862;2023-07-30T04:34:23;15.80;99.90
54431;DHT22;40342;52.998;5.862;2023-07-30T04:36:49;15.80;99.90
54431;DHT22;40342;52.998;5.862;2023-07-30T04:39:14;15.80;99.90
54431;DHT22;40342;52.998;5.862;2023-07-30T04:41:40;15.80;99.90
54431;DHT22;40342;52.998;5.862;2023-07-30T04:44:05;15.80;99.90
54431;DHT22;40342;52.998;5.862;2023-07-30T04:46:31;15.80;99.90
54431;DHT22;40342;52.998;5.862;2023-07-30T04:49:01;15.80;99.90
54431;DHT22;40342;52.998;5.862;2023-07-30T04:51:27;15.80;99.90
54431;DHT22;40342;52.998;5.862;2023-07-30T04:53:53;15.80;99.90
54431;DHT22;40342;52.998;5.862;2023-07-30T04:56:18;15.90;99.90
54431;DHT22;40342;52.998;5.862;2023-07-30T04:58:44;15.90;99.90
54431;DHT22;40342;52.998;5.862;2023-07-30T05:01:09;15.90;99.90
54431;DHT22;40342;52.998;5.862;2023-07-30T05:03:35;16.00;99.90
54431;DHT22;40342;52.998;5.862;2023-07-30T05:06:01;16.00;99.90
54431;DHT22;40342;52.998;5.862;2023-07-30T05:08:26;16.00;99.90
54431;DHT22;40342;52.998;5.862;2023-07-30T05:10:52;16.00;99.90
54431;DHT22;40342;52.998;5.862;2023-07-30T05:13:17;16.10;99.90
54431;DHT22;40342;52.998;5.862;2023-07-30T05:15:43;16.10;99.90
54431;DHT22;40342;52.998;5.862;2023-07-30T05:18:08;16.20;99.90
54431;DHT22;40342;52.998;5.862;2023-07-30T05:20:34;16.20;99.90
54431;DHT22;40342;52.998;5.862;2023-07-30T05:22:59;16.30;99.90
54431;DHT22;40342;52.998;5.862;2023-07-30T05:25:25;16.30;99.90
54431;DHT22;40342;52.998;5.862;2023-07-30T05:27:50;16.30;99.90
54431;DHT22;40342;52.998;5.862;2023-07-30T05:30:16;16.40;99.90
54431;DHT22;40342;52.998;5.862;2023-07-30T05:32:42;16.40;99.90
54431;DHT22;40342;52.998;5.862;2023-07-30T05:35:07;16.50;99.90
54431;DHT22;40342;52.998;5.862;2023-07-30T05:37:33;16.50;99.90
54431;DHT22;40342;52.998;5.862;2023-07-30T05:39:58;16.50;99.90
54431;DHT22;40342;52.998;5.862;2023-07-30T05:42:24;16.50;99.90
54431;DHT22;40342;52.998;5.862;2023-07-30T05:44:49;16.50;99.90
54431;DHT22;40342;52.998;5.862;2023-07-30T05:47:15;16.50;99.90
54431;DHT22;40342;52.998;5.862;2023-07-30T05:49:41;16.50;99.90
54431;DHT22;40342;52.998;5.862;2023-07-30T05:52:06;16.50;99.90
54431;DHT22;40342;52.998;5.862;2023-07-30T05:54:32;16.50;99.90
54431;DHT22;40342;52.998;5.862;2023-07-30T05:56:57;16.50;99.90
54431;DHT22;40342;52.998;5.862;2023-07-30T05:59:23;16.60;99.90
54431;DHT22;40342;52.998;5.862;2023-07-30T06:01:48;16.60;99.90
54431;DHT22;40342;52.998;5.862;2023-07-30T06:04:14;16.60;99.90
54431;DHT22;40342;52.998;5.862;2023-07-30T06:06:39;16.60;99.90
54431;DHT22;40342;52.998;5.862;2023-07-30T06:09:05;16.60;99.90
54431;DHT22;40342;52.998;5.862;2023-07-30T06:11:31;16.70;99.90
54431;DHT22;40342;52.998;5.862;2023-07-30T06:13:56;16.70;99.90
54431;DHT22;40342;52.998;5.862;2023-07-30T06:16:22;16.70;99.90
54431;DHT22;40342;52.998;5.862;2023-07-30T06:18:47;16.70;99.90
54431;DHT22;40342;52.998;5.862;2023-07-30T06:21:13;16.70;99.90
54431;DHT22;40342;52.998;5.862;2023-07-30T06:23:39;16.80;99.90
54431;DHT22;40342;52.998;5.862;2023-07-30T06:26:04;16.80;99.90
54431;DHT22;40342;52.998;5.862;2023-07-30T06:28:30;16.80;99.90
54431;DHT22;40342;52.998;5.862;2023-07-30T06:30:55;16.90;99.90
54431;DHT22;40342;52.998;5.862;2023-07-30T06:33:24;16.90;99.90
54431;DHT22;40342;52.998;5.862;2023-07-30T06:35:50;16.90;99.90
54431;DHT22;40342;52.998;5.862;2023-07-30T06:38:15;16.90;99.90
54431;DHT22;40342;52.998;5.862;2023-07-30T06:40:41;16.90;99.90
54431;DHT22;40342;52.998;5.862;2023-07-30T06:43:06;17.10;99.90
54431;DHT22;40342;52.998;5.862;2023-07-30T06:45:32;16.90;99.90
54431;DHT22;40342;52.998;5.862;2023-07-30T06:47:57;16.90;99.90
54431;DHT22;40342;52.998;5.862;2023-07-30T06:50:23;17.00;99.90
54431;DHT22;40342;52.998;5.862;2023-07-30T06:52:48;17.00;99.90
54431;DHT22;40342;52.998;5.862;2023-07-30T06:55:14;17.00;99.90
54431;DHT22;40342;52.998;5.862;2023-07-30T06:57:40;17.00;99.90
54431;DHT22;40342;52.998;5.862;2023-07-30T07:00:06;17.10;99.90
54431;DHT22;40342;52.998;5.862;2023-07-30T07:02:33;17.10;99.90
54431;DHT22;40342;52.998;5.862;2023-07-30T07:04:58;17.20;99.90
54431;DHT22;40342;52.998;5.862;2023-07-30T07:07:24;17.20;99.90
54431;DHT22;40342;52.998;5.862;2023-07-30T07:09:50;17.30;99.90
54431;DHT22;40342;52.998;5.862;2023-07-30T07:12:15;17.30;99.90
54431;DHT22;40342;52.998;5.862;2023-07-30T07:14:41;17.40;99.90
54431;DHT22;40342;52.998;5.862;2023-07-30T07:17:08;17.40;99.90
54431;DHT22;40342;52.998;5.862;2023-07-30T07:19:34;17.30;99.90
54431;DHT22;40342;52.998;5.862;2023-07-30T07:22:05;17.30;99.90
54431;DHT22;40342;52.998;5.862;2023-07-30T07:24:31;17.20;99.90
54431;DHT22;40342;52.998;5.862;2023-07-30T07:26:57;17.10;99.90
54431;DHT22;40342;52.998;5.862;2023-07-30T07:29:23;17.00;99.90
54431;DHT22;40342;52.998;5.862;2023-07-30T07:31:48;17.00;99.90
54431;DHT22;40342;52.998;5.862;2023-07-30T07:34:14;16.90;99.90
54431;DHT22;40342;52.998;5.862;2023-07-30T07:36:39;16.90;99.90
54431;DHT22;40342;52.998;5.862;2023-07-30T07:39:05;16.90;99.90
54431;DHT22;40342;52.998;5.862;2023-07-30T07:41:31;16.80;99.90
54431;DHT22;40342;52.998;5.862;2023-07-30T07:43:57;16.90;99.90
54431;DHT22;40342;52.998;5.862;2023-07-30T07:46:23;16.80;99.90
54431;DHT22;40342;52.998;5.862;2023-07-30T07:48:49;16.90;99.90
54431;DHT22;40342;52.998;5.862;2023-07-30T07:51:14;16.90;99.90
54431;DHT22;40342;52.998;5.862;2023-07-30T07:53:40;17.00;99.90
54431;DHT22;40342;52.998;5.862;2023-07-30T07:56:05;17.00;99.90
54431;DHT22;40342;52.998;5.862;2023-07-30T07:58:31;17.10;99.90
54431;DHT22;40342;52.998;5.862;2023-07-30T08:00:58;17.10;99.90
54431;DHT22;40342;52.998;5.862;2023-07-30T08:03:24;17.20;99.90
54431;DHT22;40342;52.998;5.862;2023-07-30T08:05:52;17.20;99.90
54431;DHT22;40342;52.998;5.862;2023-07-30T08:08:17;17.20;99.90
54431;DHT22;40342;52.998;5.862;2023-07-30T08:10:43;17.20;99.90
54431;DHT22;40342;52.998;5.862;2023-07-30T08:13:10;17.20;99.90
54431;DHT22;40342;52.998;5.862;2023-07-30T08:15:36;17.20;99.90
54431;DHT22;40342;52.998;5.862;2023-07-30T08:18:01;17.20;99.90
54431;DHT22;40342;52.998;5.862;2023-07-30T08:20:27;17.20;99.90
54431;DHT22;40342;52.998;5.862;2023-07-30T08:22:52;17.30;99.90
54431;DHT22;40342;52.998;5.862;2023-07-30T08:25:18;17.30;99.90
54431;DHT22;40342;52.998;5.862;2023-07-30T08:27:44;17.30;99.90
54431;DHT22;40342;52.998;5.862;2023-07-30T08:30:10;17.30;99.90
54431;DHT22;40342;52.998;5.862;2023-07-30T08:32:36;17.20;99.90
54431;DHT22;40342;52.998;5.862;2023-07-30T08:35:01;17.30;99.90
54431;DHT22;40342;52.998;5.862;2023-07-30T08:37:27;17.10;99.90
54431;DHT22;40342;52.998;5.862;2023-07-30T08:39:52;16.90;99.90
54431;DHT22;40342;52.998;5.862;2023-07-30T08:42:18;16.80;99.90
54431;DHT22;40342;52.998;5.862;2023-07-30T08:44:43;16.60;99.90
54431;DHT22;40342;52.998;5.862;2023-07-30T08:47:10;16.50;99.90
54431;DHT22;40342;52.998;5.862;2023-07-30T08:49:35;16.50;99.90
54431;DHT22;40342;52.998;5.862;2023-07-30T08:52:02;16.50;99.90
54431;DHT22;40342;52.998;5.862;2023-07-30T08:54:30;16.50;99.90
54431;DHT22;40342;52.998;5.862;2023-07-30T08:56:57;16.50;99.90
54431;DHT22;40342;52.998;5.862;2023-07-30T08:59:24;16.60;99.90
54431;DHT22;40342;52.998;5.862;2023-07-30T09:01:54;16.60;99.90
54431;DHT22;40342;52.998;5.862;2023-07-30T09:04:21;16.60;99.90
54431;DHT22;40342;52.998;5.862;2023-07-30T09:06:49;16.70;99.90
54431;DHT22;40342;52.998;5.862;2023-07-30T09:09:17;16.70;99.90
54431;DHT22;40342;52.998;5.862;2023-07-30T09:11:43;16.80;99.90
54431;DHT22;40342;52.998;5.862;2023-07-30T09:14:08;16.80;99.90
54431;DHT22;40342;52.998;5.862;2023-07-30T09:16:35;16.90;99.90
54431;DHT22;40342;52.998;5.862;2023-07-30T09:19:00;17.00;99.90
54431;DHT22;40342;52.998;5.862;2023-07-30T09:21:33;17.10;99.90
54431;DHT22;40342;52.998;5.862;2023-07-30T09:24:02;17.10;99.90
54431;DHT22;40342;52.998;5.862;2023-07-30T09:26:41;17.30;99.90
54431;DHT22;40342;52.998;5.862;2023-07-30T09:29:09;17.60;99.90
54431;DHT22;40342;52.998;5.862;2023-07-30T09:31:52;17.80;99.90
54431;DHT22;40342;52.998;5.862;2023-07-30T09:34:20;18.10;99.90
54431;DHT22;40342;52.998;5.862;2023-07-30T09:36:47;18.30;99.90
54431;DHT22;40342;52.998;5.862;2023-07-30T09:39:17;18.50;99.90
54431;DHT22;40342;52.998;5.862;2023-07-30T09:41:45;18.70;99.90
54431;DHT22;40342;52.998;5.862;2023-07-30T09:44:11;18.90;99.90
54431;DHT22;40342;52.998;5.862;2023-07-30T09:46:45;19.00;99.90
54431;DHT22;40342;52.998;5.862;2023-07-30T09:49:10;19.20;99.90
54431;DHT22;40342;52.998;5.862;2023-07-30T09:51:37;19.20;99.90
54431;DHT22;40342;52.998;5.862;2023-07-30T09:54:06;19.10;99.90
54431;DHT22;40342;52.998;5.862;2023-07-30T09:56:33;19.00;99.90
54431;DHT22;40342;52.998;5.862;2023-07-30T09:58:58;18.90;99.90
54431;DHT22;40342;52.998;5.862;2023-07-30T10:01:26;19.10;99.90
54431;DHT22;40342;52.998;5.862;2023-07-30T10:03:56;19.10;99.90
54431;DHT22;40342;52.998;5.862;2023-07-30T10:06:26;19.20;99.90
54431;DHT22;40342;52.998;5.862;2023-07-30T10:08:54;19.10;99.90
54431;DHT22;40342;52.998;5.862;2023-07-30T10:11:22;19.20;99.90
54431;DHT22;40342;52.998;5.862;2023-07-30T10:13:49;19.20;99.90
54431;DHT22;40342;52.998;5.862;2023-07-30T10:16:15;19.20;99.90
54431;DHT22;40342;52.998;5.862;2023-07-30T10:18:42;19.30;99.90
54431;DHT22;40342;52.998;5.862;2023-07-30T10:21:09;19.30;99.90
54431;DHT22;40342;52.998;5.862;2023-07-30T10:23:35;19.30;99.90
54431;DHT22;40342;52.998;5.862;2023-07-30T10:26:11;19.50;99.90
54431;DHT22;40342;52.998;5.862;2023-07-30T10:28:37;19.70;99.90
54431;DHT22;40342;52.998;5.862;2023-07-30T10:31:07;19.80;99.90
54431;DHT22;40342;52.998;5.862;2023-07-30T10:33:56;20.00;99.90
54431;DHT22;40342;52.998;5.862;2023-07-30T10:36:33;20.00;99.90
54431;DHT22;40342;52.998;5.862;2023-07-30T10:39:31;19.90;99.90
54431;DHT22;40342;52.998;5.862;2023-07-30T10:41:57;19.70;99.90
54431;DHT22;40342;52.998;5.862;2023-07-30T10:46:50;19.70;99.90
54431;DHT22;40342;52.998;5.862;2023-07-30T10:49:15;19.80;99.90
54431;DHT22;40342;52.998;5.862;2023-07-30T10:51:41;19.90;99.90
54431;DHT22;40342;52.998;5.862;2023-07-30T10:54:07;19.70;99.90
54431;DHT22;40342;52.998;5.862;2023-07-30T10:56:35;19.60;99.90
54431;DHT22;40342;52.998;5.862;2023-07-30T10:59:03;19.40;99.90
54431;DHT22;40342;52.998;5.862;2023-07-30T11:01:31;19.30;99.90
54431;DHT22;40342;52.998;5.862;2023-07-30T11:03:56;19.10;99.90
54431;DHT22;40342;52.998;5.862;2023-07-30T11:06:26;18.90;99.90
54431;DHT22;40342;52.998;5.862;2023-07-30T11:08:52;18.80;99.90
54431;DHT22;40342;52.998;5.862;2023-07-30T11:11:17;18.80;99.90
54431;DHT22;40342;52.998;5.862;2023-07-30T11:13:44;18.80;99.90
54431;DHT22;40342;52.998;5.862;2023-07-30T11:16:14;18.80;99.90
54431;DHT22;40342;52.998;5.862;2023-07-30T11:18:40;18.80;99.90
54431;DHT22;40342;52.998;5.862;2023-07-30T11:21:11;18.90;99.90
54431;DHT22;40342;52.998;5.862;2023-07-30T11:23:38;18.90;99.90
54431;DHT22;40342;52.998;5.862;2023-07-30T11:26:06;18.80;99.90
54431;DHT22;40342;52.998;5.862;2023-07-30T11:28:39;18.70;99.90
54431;DHT22;40342;52.998;5.862;2023-07-30T11:31:24;18.50;99.90
54431;DHT22;40342;52.998;5.862;2023-07-30T11:33:52;18.30;99.90
54431;DHT22;40342;52.998;5.862;2023-07-30T11:36:22;18.00;99.90
54431;DHT22;40342;52.998;5.862;2023-07-30T11:38:51;17.90;99.90
54431;DHT22;40342;52.998;5.862;2023-07-30T11:41:18;17.80;99.90
54431;DHT22;40342;52.998;5.862;2023-07-30T11:43:45;17.70;99.90
54431;DHT22;40342;52.998;5.862;2023-07-30T11:46:18;17.60;99.90
54431;DHT22;40342;52.998;5.862;2023-07-30T11:48:48;17.70;99.90
54431;DHT22;40342;52.998;5.862;2023-07-30T11:53:52;18.10;99.90
54431;DHT22;40342;52.998;5.862;2023-07-30T11:56:26;18.30;99.90
54431;DHT22;40342;52.998;5.862;2023-07-30T11:59:06;18.40;99.90
54431;DHT22;40342;52.998;5.862;2023-07-30T12:01:34;18.80;99.90
54431;DHT22;40342;52.998;5.862;2023-07-30T12:04:01;18.90;99.90
54431;DHT22;40342;52.998;5.862;2023-07-30T12:06:49;19.10;99.90
54431;DHT22;40342;52.998;5.862;2023-07-30T12:09:22;19.20;99.90
54431;DHT22;40342;52.998;5.862;2023-07-30T12:11:52;19.40;99.90
54431;DHT22;40342;52.998;5.862;2023-07-30T12:14:19;19.60;99.90
54431;DHT22;40342;52.998;5.862;2023-07-30T12:16:45;19.90;99.90
54431;DHT22;40342;52.998;5.862;2023-07-30T12:19:11;20.10;99.90
54431;DHT22;40342;52.998;5.862;2023-07-30T12:21:36;20.00;99.90
54431;DHT22;40342;52.998;5.862;2023-07-30T12:24:02;19.90;99.90
54431;DHT22;40342;52.998;5.862;2023-07-30T12:26:29;19.80;99.90
54431;DHT22;40342;52.998;5.862;2023-07-30T12:28:54;19.80;99.90
54431;DHT22;40342;52.998;5.862;2023-07-30T12:31:20;19.70;99.90
54431;DHT22;40342;52.998;5.862;2023-07-30T12:33:45;19.60;99.90
54431;DHT22;40342;52.998;5.862;2023-07-30T12:36:11;19.70;99.90
54431;DHT22;40342;52.998;5.862;2023-07-30T12:38:37;19.90;99.90
54431;DHT22;40342;52.998;5.862;2023-07-30T12:41:02;20.10;99.90
54431;DHT22;40342;52.998;5.862;2023-07-30T12:43:28;20.30;99.90
54431;DHT22;40342;52.998;5.862;2023-07-30T12:45:53;20.30;99.90
54431;DHT22;40342;52.998;5.862;2023-07-30T12:48:19;20.30;99.90
54431;DHT22;40342;52.998;5.862;2023-07-30T12:50:45;20.20;99.90
54431;DHT22;40342;52.998;5.862;2023-07-30T12:53:10;20.20;99.90
54431;DHT22;40342;52.998;5.862;2023-07-30T12:55:36;20.40;99.90
54431;DHT22;40342;52.998;5.862;2023-07-30T12:58:03;20.40;99.90
54431;DHT22;40342;52.998;5.862;2023-07-30T13:00:29;20.60;99.90
54431;DHT22;40342;52.998;5.862;2023-07-30T13:02:54;20.70;99.90
54431;DHT22;40342;52.998;5.862;2023-07-30T13:05:22;20.80;99.90
54431;DHT22;40342;52.998;5.862;2023-07-30T13:07:48;20.80;99.90
54431;DHT22;40342;52.998;5.862;2023-07-30T13:10:14;20.90;99.90
54431;DHT22;40342;52.998;5.862;2023-07-30T13:12:40;21.00;99.90
54431;DHT22;40342;52.998;5.862;2023-07-30T13:15:06;21.10;99.90
54431;DHT22;40342;52.998;5.862;2023-07-30T13:17:32;21.00;99.90
54431;DHT22;40342;52.998;5.862;2023-07-30T13:19:58;20.90;99.90
54431;DHT22;40342;52.998;5.862;2023-07-30T13:22:23;20.80;99.90
54431;DHT22;40342;52.998;5.862;2023-07-30T13:24:49;20.60;99.90
54431;DHT22;40342;52.998;5.862;2023-07-30T13:27:15;20.40;99.90
54431;DHT22;40342;52.998;5.862;2023-07-30T13:29:40;20.20;99.90
54431;DHT22;40342;52.998;5.862;2023-07-30T13:32:06;20.10;99.90
54431;DHT22;40342;52.998;5.862;2023-07-30T13:34:32;20.10;99.90
54431;DHT22;40342;52.998;5.862;2023-07-30T13:36:58;20.20;99.90
54431;DHT22;40342;52.998;5.862;2023-07-30T13:39:23;20.10;99.90
54431;DHT22;40342;52.998;5.862;2023-07-30T13:41:49;20.00;99.90
54431;DHT22;40342;52.998;5.862;2023-07-30T13:44:14;20.10;99.90
54431;DHT22;40342;52.998;5.862;2023-07-30T13:46:40;20.20;99.90
54431;DHT22;40342;52.998;5.862;2023-07-30T13:49:06;20.10;99.90
54431;DHT22;40342;52.998;5.862;2023-07-30T13:51:31;19.80;99.90
54431;DHT22;40342;52.998;5.862;2023-07-30T13:54:01;19.60;99.90
54431;DHT22;40342;52.998;5.862;2023-07-30T13:56:29;19.30;99.90
54431;DHT22;40342;52.998;5.862;2023-07-30T13:58:55;19.10;99.90
54431;DHT22;40342;52.998;5.862;2023-07-30T14:01:22;18.90;99.90
54431;DHT22;40342;52.998;5.862;2023-07-30T14:03:48;18.70;99.90
54431;DHT22;40342;52.998;5.862;2023-07-30T14:06:13;18.60;99.90
54431;DHT22;40342;52.998;5.862;2023-07-30T14:08:39;18.50;99.90
54431;DHT22;40342;52.998;5.862;2023-07-30T14:11:04;18.40;99.90
54431;DHT22;40342;52.998;5.862;2023-07-30T14:13:30;18.30;99.90
54431;DHT22;40342;52.998;5.862;2023-07-30T14:15:56;18.20;99.90
54431;DHT22;40342;52.998;5.862;2023-07-30T14:18:22;18.00;99.90
54431;DHT22;40342;52.998;5.862;2023-07-30T14:20:47;17.90;99.90
54431;DHT22;40342;52.998;5.862;2023-07-30T14:23:13;17.80;99.90
54431;DHT22;40342;52.998;5.862;2023-07-30T14:25:40;17.70;99.90
54431;DHT22;40342;52.998;5.862;2023-07-30T14:28:05;17.60;99.90
54431;DHT22;40342;52.998;5.862;2023-07-30T14:30:31;17.40;99.90
54431;DHT22;40342;52.998;5.862;2023-07-30T14:32:56;17.20;99.90
54431;DHT22;40342;52.998;5.862;2023-07-30T14:35:22;17.10;99.90
54431;DHT22;40342;52.998;5.862;2023-07-30T14:37:48;16.80;99.90
54431;DHT22;40342;52.998;5.862;2023-07-30T14:40:15;16.80;99.90
54431;DHT22;40342;52.998;5.862;2023-07-30T14:42:40;16.70;99.90
54431;DHT22;40342;52.998;5.862;2023-07-30T14:45:06;16.80;99.90
54431;DHT22;40342;52.998;5.862;2023-07-30T14:47:32;16.80;99.90
54431;DHT22;40342;52.998;5.862;2023-07-30T14:49:58;16.80;99.90
54431;DHT22;40342;52.998;5.862;2023-07-30T14:52:24;16.80;99.90
54431;DHT22;40342;52.998;5.862;2023-07-30T14:54:50;16.80;99.90
54431;DHT22;40342;52.998;5.862;2023-07-30T14:57:16;16.80;99.90
54431;DHT22;40342;52.998;5.862;2023-07-30T14:59:42;16.80;99.90
54431;DHT22;40342;52.998;5.862;2023-07-30T15:02:07;17.00;99.90
54431;DHT22;40342;52.998;5.862;2023-07-30T15:04:33;17.20;99.90
54431;DHT22;40342;52.998;5.862;2023-07-30T15:06:59;17.30;99.90
54431;DHT22;40342;52.998;5.862;2023-07-30T15:09:24;17.50;99.90
54431;DHT22;40342;52.998;5.862;2023-07-30T15:11:50;17.60;99.90
54431;DHT22;40342;52.998;5.862;2023-07-30T15:14:16;17.60;99.90
54431;DHT22;40342;52.998;5.862;2023-07-30T15:16:41;17.70;99.90
54431;DHT22;40342;52.998;5.862;2023-07-30T15:19:07;17.70;99.90
54431;DHT22;40342;52.998;5.862;2023-07-30T15:21:32;17.80;99.90
54431;DHT22;40342;52.998;5.862;2023-07-30T15:23:58;17.80;99.90
54431;DHT22;40342;52.998;5.862;2023-07-30T15:26:24;17.80;99.90
54431;DHT22;40342;52.998;5.862;2023-07-30T15:28:49;17.90;99.90
54431;DHT22;40342;52.998;5.862;2023-07-30T15:31:15;18.00;99.90